createdAt,value
2023-05-10T00:01:10.415Z,8.30
2023-05-10T00:03:45.084Z,7.50
2023-05-10T00:06:21.417Z,10.90
2023-05-10T00:08:55.565Z,10.00
2023-05-10T00:11:29.911Z,9.60
2023-05-10T00:14:04.115Z,9.20
2023-05-10T00:16:38.364Z,9.50
2023-05-10T00:19:13.199Z,10.80
2023-05-10T00:21:47.595Z,9.60
2023-05-10T00:24:21.931Z,8.20
2023-05-10T00:26:56.194Z,9.90
2023-05-10T00:29:30.493Z,9.60
2023-05-10T00:32:04.811Z,9.60
2023-05-10T00:34:39.155Z,9.50
2023-05-10T00:37:13.634Z,8.30
2023-05-10T00:39:47.889Z,9.10
2023-05-10T00:42:22.222Z,8.10
2023-05-10T00:44:57.624Z,9.60
2023-05-10T00:47:33.892Z,11.00
2023-05-10T00:50:10.763Z,12.10
2023-05-10T00:52:46.375Z,8.90
2023-05-10T00:55:20.811Z,8.60
2023-05-10T00:57:56.302Z,10.30
2023-05-10T01:00:30.833Z,10.70
2023-05-10T01:03:05.085Z,10.70
2023-05-10T01:05:39.522Z,12.20
2023-05-10T01:08:13.919Z,9.30
2023-05-10T01:10:50.328Z,11.40
2023-05-10T01:13:37.211Z,10.20
2023-05-10T01:16:12.909Z,9.10
2023-05-10T01:18:49.001Z,10.00
2023-05-10T01:21:35.690Z,9.90
2023-05-10T01:24:59.242Z,11.40
2023-05-10T01:28:10.268Z,11.40
2023-05-10T01:31:16.052Z,10.80
2023-05-10T01:33:58.264Z,10.70
2023-05-10T01:36:46.003Z,11.30
2023-05-10T01:39:27.288Z,8.70
2023-05-10T01:42:12.790Z,9.80
2023-05-10T01:44:59.360Z,10.70
2023-05-10T01:47:41.128Z,10.80
2023-05-10T01:50:20.431Z,11.10
2023-05-10T01:53:00.188Z,9.50
2023-05-10T01:55:42.320Z,9.90
2023-05-10T01:58:23.395Z,10.80
2023-05-10T02:01:00.781Z,9.80
2023-05-10T02:03:39.021Z,11.70
2023-05-10T02:06:17.527Z,11.00
2023-05-10T02:08:54.559Z,10.70
2023-05-10T02:11:29.958Z,10.40
2023-05-10T02:14:05.808Z,14.10
2023-05-10T02:16:42.817Z,11.60
2023-05-10T02:19:19.450Z,10.70
2023-05-10T02:21:56.413Z,9.60
2023-05-10T02:24:32.542Z,9.70
2023-05-10T02:27:09.127Z,9.30
2023-05-10T02:29:46.778Z,9.00
2023-05-10T02:32:23.828Z,8.90
2023-05-10T02:34:59.741Z,10.60
2023-05-10T02:37:35.559Z,11.20
2023-05-10T02:40:15.350Z,8.90
2023-05-10T02:42:53.164Z,10.10
2023-05-10T02:45:33.478Z,8.70
2023-05-10T02:48:08.529Z,9.10
2023-05-10T02:50:49.701Z,11.40
2023-05-10T02:53:35.840Z,10.90
2023-05-10T02:56:22.454Z,8.40
2023-05-10T02:58:57.462Z,9.30
2023-05-10T03:01:31.814Z,10.50
2023-05-10T03:04:06.568Z,9.00
2023-05-10T03:06:41.244Z,11.10
2023-05-10T03:09:17.473Z,10.40
2023-05-10T03:12:09.114Z,10.90
2023-05-10T03:14:59.776Z,10.20
2023-05-10T03:17:54.869Z,12.40
2023-05-10T03:20:37.601Z,9.50
2023-05-10T03:23:27.760Z,9.70
2023-05-10T03:26:04.267Z,8.90
2023-05-10T03:28:39.865Z,8.80
2023-05-10T03:31:16.776Z,10.90
2023-05-10T03:33:55.897Z,9.70
2023-05-10T03:36:32.554Z,9.00
2023-05-10T03:39:07.013Z,9.70
2023-05-10T03:41:41.641Z,11.00
2023-05-10T03:44:16.776Z,8.30
2023-05-10T03:46:52.198Z,8.90
2023-05-10T03:49:27.059Z,8.60
2023-05-10T03:52:01.627Z,9.20
2023-05-10T03:54:35.870Z,10.00
2023-05-10T03:57:10.703Z,10.10
2023-05-10T03:59:46.387Z,8.10
2023-05-10T04:02:20.823Z,10.10
2023-05-10T04:04:55.330Z,9.90
2023-05-10T04:07:30.439Z,8.70
2023-05-10T04:10:05.229Z,9.60
2023-05-10T04:12:39.575Z,9.30
2023-05-10T04:15:15.097Z,7.40
2023-05-10T04:17:49.334Z,7.70
2023-05-10T04:20:24.042Z,9.10
2023-05-10T04:22:58.333Z,8.10
2023-05-10T04:25:32.757Z,7.50
2023-05-10T04:28:07.453Z,8.20
2023-05-10T04:30:44.031Z,7.30
2023-05-10T04:33:18.615Z,9.20
2023-05-10T04:35:52.894Z,8.50
2023-05-10T04:38:28.088Z,10.20
2023-05-10T04:41:10.613Z,8.20
2023-05-10T04:43:44.776Z,8.50
2023-05-10T04:46:20.738Z,9.90
2023-05-10T04:48:55.328Z,9.60
2023-05-10T04:51:29.828Z,9.50
2023-05-10T04:54:06.760Z,9.70
2023-05-10T04:56:41.929Z,7.00
2023-05-10T04:59:16.984Z,12.40
2023-05-10T05:01:51.356Z,8.20
2023-05-10T05:04:26.124Z,8.90
2023-05-10T05:07:00.435Z,9.50
2023-05-10T05:09:34.946Z,8.30
2023-05-10T05:12:15.295Z,7.50
2023-05-10T05:14:49.944Z,8.70
2023-05-10T05:17:24.306Z,8.40
2023-05-10T05:19:59.403Z,8.80
2023-05-10T05:22:34.480Z,9.30
2023-05-10T05:25:10.912Z,7.70
2023-05-10T05:27:45.339Z,7.50
2023-05-10T05:30:23.102Z,7.70
2023-05-10T05:32:57.864Z,8.20
2023-05-10T05:35:32.572Z,10.10
2023-05-10T05:38:07.277Z,9.20
2023-05-10T05:40:41.645Z,9.10
2023-05-10T05:43:16.172Z,8.00
2023-05-10T05:45:50.871Z,8.50
2023-05-10T05:48:25.371Z,10.00
2023-05-10T05:51:02.839Z,8.60
2023-05-10T05:53:38.136Z,8.30
2023-05-10T05:56:12.994Z,7.70
2023-05-10T05:58:49.591Z,7.40
2023-05-10T06:01:26.591Z,7.40
2023-05-10T06:04:01.136Z,10.40
2023-05-10T06:06:36.382Z,7.10
2023-05-10T06:09:13.270Z,9.80
2023-05-10T06:11:47.835Z,8.60
2023-05-10T06:14:24.280Z,6.50
2023-05-10T06:17:00.860Z,7.30
2023-05-10T06:19:35.143Z,6.40
2023-05-10T06:22:09.555Z,8.10
2023-05-10T06:24:44.654Z,6.60
2023-05-10T06:27:19.124Z,6.80
2023-05-10T06:30:02.061Z,6.80
2023-05-10T06:32:42.370Z,7.40
2023-05-10T06:35:17.576Z,6.60
2023-05-10T06:37:52.930Z,6.80
2023-05-10T06:40:27.579Z,8.50
2023-05-10T06:43:02.088Z,7.70
2023-05-10T06:45:36.590Z,6.00
2023-05-10T06:48:11.316Z,5.60
2023-05-10T06:50:46.280Z,6.50
2023-05-10T06:53:22.067Z,7.40
2023-05-10T06:55:58.228Z,7.30
2023-05-10T06:58:33.897Z,10.00
2023-05-10T07:01:11.965Z,6.30
2023-05-10T07:03:46.786Z,6.90
2023-05-10T07:06:32.972Z,6.90
2023-05-10T07:09:08.845Z,5.90
2023-05-10T07:11:43.730Z,6.40
2023-05-10T07:14:18.136Z,5.80
2023-05-10T07:16:54.232Z,8.10
2023-05-10T07:19:30.548Z,5.20
2023-05-10T07:22:06.592Z,6.50
2023-05-10T07:24:42.225Z,8.90
2023-05-10T07:27:16.891Z,4.50
2023-05-10T07:29:51.789Z,5.70
2023-05-10T07:32:33.816Z,5.50
2023-05-10T07:35:10.986Z,5.10
2023-05-10T07:37:46.193Z,5.00
2023-05-10T07:40:22.184Z,6.30
2023-05-10T07:42:58.051Z,6.40
2023-05-10T07:45:35.378Z,7.40
2023-05-10T07:48:10.297Z,6.90
2023-05-10T07:50:44.680Z,7.40
2023-05-10T07:53:19.774Z,6.60
2023-05-10T07:56:00.174Z,4.80
2023-05-10T07:58:34.776Z,5.90
2023-05-10T08:01:16.920Z,6.10
2023-05-10T08:03:56.557Z,5.00
2023-05-10T08:06:33.437Z,8.40
2023-05-10T08:09:09.139Z,6.80
2023-05-10T08:11:43.998Z,8.20
2023-05-10T08:14:19.408Z,4.50
2023-05-10T08:16:56.487Z,4.80
2023-05-10T08:19:33.321Z,6.30
2023-05-10T08:22:07.909Z,6.20
2023-05-10T08:24:43.247Z,4.80
2023-05-10T08:27:18.306Z,6.80
2023-05-10T08:29:53.428Z,5.20
2023-05-10T08:32:30.440Z,4.50
2023-05-10T08:35:08.159Z,7.50
2023-05-10T08:37:42.703Z,5.60
2023-05-10T08:40:19.465Z,5.70
2023-05-10T08:43:11.116Z,5.00
2023-05-10T08:45:48.717Z,5.90
2023-05-10T08:48:26.038Z,8.60
2023-05-10T08:51:05.214Z,6.60
2023-05-10T08:53:42.542Z,4.70
2023-05-10T08:56:20.880Z,3.90
2023-05-10T08:59:00.978Z,5.40
2023-05-10T09:01:39.979Z,4.50
2023-05-10T09:04:16.852Z,6.10
2023-05-10T09:06:52.800Z,3.60
2023-05-10T09:09:28.270Z,5.30
2023-05-10T09:12:03.636Z,4.80
2023-05-10T09:14:41.153Z,5.30
2023-05-10T09:17:16.204Z,4.50
2023-05-10T09:19:59.403Z,4.80
2023-05-10T09:22:34.512Z,5.00
2023-05-10T09:25:17.325Z,4.40
2023-05-10T09:27:55.064Z,5.70
2023-05-10T09:30:34.548Z,4.00
2023-05-10T09:33:10.276Z,4.20
2023-05-10T09:35:46.827Z,6.80
2023-05-10T09:38:22.500Z,6.60
2023-05-10T09:41:00.924Z,7.40
2023-05-10T09:43:44.208Z,4.40
2023-05-10T09:46:19.912Z,5.50
2023-05-10T09:48:58.426Z,4.20
2023-05-10T09:51:35.044Z,6.30
2023-05-10T09:54:24.973Z,4.70
2023-05-10T09:57:00.740Z,6.70
2023-05-10T09:59:37.429Z,3.90
2023-05-10T10:02:12.604Z,3.90
2023-05-10T10:04:47.407Z,5.10
2023-05-10T10:07:30.050Z,4.30
2023-05-10T10:10:05.986Z,4.00
2023-05-10T10:12:40.809Z,5.50
2023-05-10T10:15:27.231Z,4.20
2023-05-10T10:18:02.111Z,5.60
2023-05-10T10:20:40.722Z,5.30
2023-05-10T10:23:17.618Z,3.30
2023-05-10T10:25:58.238Z,4.60
2023-05-10T10:28:54.312Z,3.80
2023-05-10T10:31:43.161Z,5.50
2023-05-10T10:34:30.366Z,6.00
2023-05-10T10:37:10.290Z,3.70
2023-05-10T10:39:51.266Z,5.70
2023-05-10T10:42:52.359Z,5.70
2023-05-10T10:45:29.146Z,5.30
2023-05-10T10:48:33.144Z,4.00
2023-05-10T10:53:16.505Z,5.70
2023-05-10T10:56:08.704Z,5.30
2023-05-10T10:58:52.885Z,4.50
2023-05-10T11:01:35.828Z,6.40
2023-05-10T11:04:26.757Z,5.60
2023-05-10T11:07:23.102Z,4.50
2023-05-10T11:09:58.142Z,4.70
2023-05-10T11:12:33.632Z,4.50
2023-05-10T11:15:15.704Z,4.60
2023-05-10T11:17:55.316Z,4.00
2023-05-10T11:20:40.714Z,5.20
2023-05-10T11:23:19.339Z,3.00
2023-05-10T11:25:58.370Z,5.70
2023-05-10T11:28:33.195Z,5.30
2023-05-10T11:31:09.372Z,5.40
2023-05-10T11:33:51.240Z,8.60
2023-05-10T11:36:29.844Z,7.60
2023-05-10T11:39:05.099Z,3.90
2023-05-10T11:41:41.002Z,3.60
2023-05-10T11:44:16.928Z,4.60
2023-05-10T11:46:51.746Z,4.60
2023-05-10T11:49:29.265Z,4.30
2023-05-10T11:52:12.485Z,6.70
2023-05-10T11:54:57.398Z,3.50
2023-05-10T11:57:33.734Z,3.20
2023-05-10T12:00:10.605Z,3.30
2023-05-10T12:02:46.056Z,8.50
2023-05-10T12:05:21.726Z,5.60
2023-05-10T12:08:13.234Z,5.50
2023-05-10T12:10:47.826Z,5.30
2023-05-10T12:13:24.797Z,8.70
2023-05-10T12:16:01.937Z,3.60
2023-05-10T12:18:41.431Z,4.40
2023-05-10T12:21:19.114Z,3.20
2023-05-10T12:23:56.484Z,5.90
2023-05-10T12:26:32.292Z,5.00
2023-05-10T12:29:22.267Z,5.20
2023-05-10T12:31:59.623Z,3.90
2023-05-10T12:34:39.148Z,4.70
2023-05-10T12:37:26.336Z,4.00
2023-05-10T12:40:00.901Z,3.50
2023-05-10T12:42:35.428Z,4.50
2023-05-10T12:45:13.567Z,6.60
2023-05-10T12:47:49.441Z,4.50
2023-05-10T12:50:27.045Z,7.50
2023-05-10T12:53:01.809Z,4.80
2023-05-10T12:55:36.878Z,7.80
2023-05-10T12:58:15.830Z,4.10
2023-05-10T13:00:58.086Z,4.20
2023-05-10T13:03:32.719Z,4.10
2023-05-10T13:06:08.136Z,3.90
2023-05-10T13:08:44.999Z,3.50
2023-05-10T13:11:20.944Z,3.70
2023-05-10T13:13:55.744Z,3.10
2023-05-10T13:16:31.937Z,4.90
2023-05-10T13:19:06.583Z,6.40
2023-05-10T13:21:42.014Z,3.50
2023-05-10T13:24:19.997Z,3.70
2023-05-10T13:26:54.496Z,3.50
2023-05-10T13:29:29.198Z,3.30
2023-05-10T13:32:04.065Z,4.50
2023-05-10T13:34:38.896Z,4.10
2023-05-10T13:37:16.882Z,5.40
2023-05-10T13:39:51.755Z,3.60
2023-05-10T13:42:30.788Z,5.60
2023-05-10T13:45:06.089Z,3.10
2023-05-10T13:47:42.242Z,5.80
2023-05-10T13:50:18.063Z,2.80
2023-05-10T13:52:53.142Z,7.50
2023-05-10T13:55:30.575Z,4.60
2023-05-10T13:58:05.489Z,6.10
2023-05-10T14:00:40.814Z,4.60
2023-05-10T14:03:15.833Z,8.30
2023-05-10T14:05:52.816Z,3.30
2023-05-10T14:08:29.609Z,2.70
2023-05-10T14:11:06.709Z,2.90
2023-05-10T14:25:17.478Z,4.50
2023-05-10T14:27:55.333Z,4.40
2023-05-10T14:30:30.275Z,2.60
2023-05-10T14:33:09.036Z,5.40
2023-05-10T14:35:44.599Z,4.00
2023-05-10T14:38:22.802Z,8.20
2023-05-10T14:40:58.655Z,3.80
2023-05-10T14:43:33.576Z,4.20
2023-05-10T14:46:09.996Z,3.40
2023-05-10T14:48:45.153Z,4.10
2023-05-10T14:51:22.874Z,3.60
2023-05-10T14:53:58.584Z,3.40
2023-05-10T14:56:34.343Z,2.60
2023-05-10T14:59:09.036Z,4.20
2023-05-10T15:01:45.357Z,4.90
2023-05-10T15:04:20.224Z,6.70
2023-05-10T15:07:00.267Z,3.50
2023-05-10T15:09:34.883Z,6.30
2023-05-10T15:12:09.536Z,2.40
2023-05-10T15:14:44.082Z,2.30
2023-05-10T15:17:18.697Z,4.50
2023-05-10T15:19:53.391Z,5.30
2023-05-10T15:22:29.381Z,5.60
2023-05-10T15:25:04.246Z,3.20
2023-05-10T15:27:38.701Z,2.80
2023-05-10T15:30:16.738Z,5.30
2023-05-10T15:32:51.155Z,4.40
2023-05-10T15:35:26.023Z,7.90
2023-05-10T15:38:00.901Z,3.60
2023-05-10T15:40:35.365Z,3.40
2023-05-10T15:43:09.806Z,3.40
2023-05-10T15:45:44.879Z,4.00
2023-05-10T15:48:19.628Z,5.20
2023-05-10T15:50:54.092Z,3.50
2023-05-10T15:53:29.261Z,3.50
2023-05-10T15:56:04.344Z,4.40
2023-05-10T15:58:39.852Z,5.20
2023-05-10T16:01:14.743Z,4.30
2023-05-10T16:03:49.106Z,3.20
2023-05-10T16:06:23.577Z,3.50
2023-05-10T16:08:57.888Z,4.40
2023-05-10T16:11:32.360Z,5.00
2023-05-10T16:14:07.349Z,4.10
2023-05-10T16:16:41.915Z,3.10
2023-05-10T16:19:17.114Z,3.10
2023-05-10T16:21:52.189Z,3.30
2023-05-10T16:24:27.143Z,8.30
2023-05-10T16:27:01.626Z,3.70
2023-05-10T16:29:35.988Z,4.30
2023-05-10T16:32:10.937Z,4.50
2023-05-10T16:34:45.525Z,4.00
2023-05-10T16:37:20.146Z,4.30
2023-05-10T16:39:54.616Z,2.80
2023-05-10T16:42:30.746Z,5.40
2023-05-10T16:45:09.158Z,6.00
2023-05-10T16:47:45.213Z,3.30
2023-05-10T16:50:20.309Z,2.70
2023-05-10T16:52:54.894Z,4.50
2023-05-10T16:55:29.845Z,4.60
2023-05-10T16:58:04.076Z,4.80
2023-05-10T17:00:38.381Z,5.10
2023-05-10T17:03:12.645Z,4.10
2023-05-10T17:05:47.138Z,6.70
2023-05-10T17:08:21.725Z,3.90
2023-05-10T17:10:56.433Z,6.20
2023-05-10T17:13:31.198Z,5.10
2023-05-10T17:16:06.242Z,5.00
2023-05-10T17:18:42.131Z,7.30
2023-05-10T17:21:16.958Z,5.70
2023-05-10T17:23:51.366Z,4.80
2023-05-10T17:26:27.747Z,12.80
2023-05-10T17:29:02.225Z,5.00
2023-05-10T17:31:36.771Z,5.30
2023-05-10T17:34:11.337Z,8.10
2023-05-10T17:36:45.828Z,6.20
2023-05-10T17:39:21.498Z,6.10
2023-05-10T17:41:56.196Z,5.50
2023-05-10T17:44:31.248Z,6.50
2023-05-10T17:47:06.484Z,5.60
2023-05-10T17:49:41.515Z,5.40
2023-05-10T17:52:16.237Z,6.00
2023-05-10T17:54:50.971Z,6.80
2023-05-10T17:57:26.345Z,8.30
2023-05-10T18:00:02.396Z,5.90
2023-05-10T18:02:39.923Z,6.10
2023-05-10T18:05:15.665Z,6.90
2023-05-10T18:07:50.375Z,5.40
2023-05-10T18:10:25.649Z,8.40
2023-05-10T18:13:02.640Z,6.20
2023-05-10T18:15:38.179Z,5.80
2023-05-10T18:18:13.313Z,6.40
2023-05-10T18:20:48.060Z,6.80
2023-05-10T18:23:22.704Z,6.40
2023-05-10T18:25:58.404Z,6.00
2023-05-10T18:28:32.943Z,6.90
2023-05-10T18:31:07.461Z,5.80
2023-05-10T18:33:42.252Z,7.30
2023-05-10T18:36:16.991Z,5.90
2023-05-10T18:38:51.853Z,8.10
2023-05-10T18:41:27.245Z,6.80
2023-05-10T18:44:01.907Z,6.60
2023-05-10T18:46:37.215Z,10.60
2023-05-10T18:49:12.210Z,12.40
2023-05-10T18:51:47.107Z,25.60
2023-05-10T18:54:21.865Z,26.50
2023-05-10T18:57:01.386Z,22.50
2023-05-10T18:59:39.531Z,8.90
2023-05-10T19:02:15.156Z,10.80
2023-05-10T19:04:49.973Z,7.30
2023-05-10T19:07:24.514Z,5.60
2023-05-10T19:09:59.711Z,8.40
2023-05-10T19:12:34.792Z,12.70
2023-05-10T19:15:11.929Z,10.50
2023-05-10T19:17:50.611Z,7.10
2023-05-10T19:20:25.798Z,7.90
2023-05-10T19:23:09.763Z,10.70
2023-05-10T19:25:46.368Z,10.60
2023-05-10T19:28:21.339Z,8.50
2023-05-10T19:30:56.731Z,11.70
2023-05-10T19:33:32.852Z,10.40
2023-05-10T19:36:09.274Z,11.00
2023-05-10T19:38:45.032Z,10.80
2023-05-10T19:41:22.696Z,10.50
2023-05-10T19:43:59.214Z,7.50
2023-05-10T19:46:33.666Z,8.00
2023-05-10T19:49:08.141Z,8.10
2023-05-10T19:51:42.608Z,8.90
2023-05-10T19:54:17.381Z,9.50
2023-05-10T19:56:52.178Z,8.60
2023-05-10T19:59:26.541Z,6.60
2023-05-10T20:02:00.866Z,5.80
2023-05-10T20:04:35.237Z,8.50
2023-05-10T20:07:09.605Z,8.10
2023-05-10T20:09:45.533Z,6.90
2023-05-10T20:12:20.051Z,7.70
2023-05-10T20:14:54.239Z,8.70
2023-05-10T20:17:28.958Z,6.00
2023-05-10T20:20:04.127Z,7.40
2023-05-10T20:22:38.818Z,8.70
2023-05-10T20:25:15.288Z,8.20
2023-05-10T20:27:51.096Z,9.40
2023-05-10T20:30:25.799Z,8.60
2023-05-10T20:33:00.074Z,8.60
2023-05-10T20:35:34.498Z,10.00
2023-05-10T20:38:08.739Z,7.90
2023-05-10T20:40:43.063Z,11.20
2023-05-10T20:43:17.623Z,7.70
2023-05-10T20:45:52.115Z,7.60
2023-05-10T20:48:26.260Z,7.00
2023-05-10T20:51:02.142Z,8.50
2023-05-10T20:53:36.613Z,6.30
2023-05-10T20:56:11.140Z,8.60
2023-05-10T20:58:45.743Z,7.40
2023-05-10T21:01:20.024Z,9.90
2023-05-10T21:03:54.380Z,7.90
2023-05-10T21:06:31.091Z,9.30
2023-05-10T21:09:05.483Z,9.60
2023-05-10T21:11:40.136Z,12.90
2023-05-10T21:14:14.419Z,10.70
2023-05-10T21:16:48.704Z,9.40
2023-05-10T21:19:23.922Z,9.50
2023-05-10T21:21:59.796Z,12.30
2023-05-10T21:24:35.220Z,7.80
2023-05-10T21:27:09.769Z,8.60
2023-05-10T21:29:44.308Z,9.30
2023-05-10T21:32:18.731Z,10.50
2023-05-10T21:34:53.143Z,8.30
2023-05-10T21:37:27.691Z,7.00
2023-05-10T21:40:02.040Z,8.10
2023-05-10T21:42:37.466Z,7.80
2023-05-10T21:45:14.119Z,10.70
2023-05-10T21:47:49.417Z,11.40
2023-05-10T21:50:24.193Z,8.70
2023-05-10T21:52:58.911Z,8.10
2023-05-10T21:55:34.382Z,7.50
2023-05-10T21:58:08.826Z,7.60
2023-05-10T22:00:43.374Z,7.80
2023-05-10T22:03:17.888Z,9.00
2023-05-10T22:05:52.657Z,8.30
2023-05-10T22:08:27.320Z,9.00
2023-05-10T22:11:01.845Z,10.00
2023-05-10T22:13:36.305Z,8.80
2023-05-10T22:16:10.635Z,7.30
2023-05-10T22:18:45.908Z,8.20
2023-05-10T22:21:21.283Z,7.20
2023-05-10T22:23:55.497Z,8.50
2023-05-10T22:26:30.473Z,8.40
2023-05-10T22:29:05.386Z,8.40
2023-05-10T22:31:40.151Z,6.20
2023-05-10T22:34:14.509Z,8.00
2023-05-10T22:36:50.560Z,7.90
2023-05-10T22:39:24.764Z,6.90
2023-05-10T22:41:58.857Z,8.60
2023-05-10T22:44:33.265Z,7.20
2023-05-10T22:47:09.030Z,7.10
2023-05-10T22:49:43.342Z,6.80
2023-05-10T22:52:17.802Z,10.20
2023-05-10T22:54:52.058Z,7.70
2023-05-10T22:57:27.005Z,8.60
2023-05-10T23:00:01.252Z,8.10
2023-05-10T23:02:35.594Z,8.10
2023-05-10T23:05:12.408Z,8.60
2023-05-10T23:07:48.397Z,7.10
2023-05-10T23:10:22.678Z,5.90
2023-05-10T23:12:57.208Z,7.40
2023-05-10T23:15:33.136Z,7.70
2023-05-10T23:18:08.404Z,9.60
2023-05-10T23:20:44.382Z,6.70
2023-05-10T23:23:18.635Z,8.60
2023-05-10T23:25:53.045Z,8.30
2023-05-10T23:28:27.217Z,6.30
2023-05-10T23:31:01.736Z,9.00
2023-05-10T23:33:36.311Z,9.70
2023-05-10T23:36:11.310Z,7.60
2023-05-10T23:38:45.495Z,9.50
2023-05-10T23:41:20.376Z,9.40
2023-05-10T23:43:54.464Z,9.20
2023-05-10T23:46:28.666Z,7.90
2023-05-10T23:49:02.941Z,9.30
2023-05-10T23:51:37.055Z,7.00
2023-05-10T23:54:12.415Z,7.70
2023-05-10T23:56:50.335Z,13.50
2023-05-10T23:59:24.638Z,7.00
